Time;durP1;ratioP1;P1;durP2;ratioP2;P2;SDS_P1;SDS_P2;PMS_P1;PMS_P2;Temp;Humidity;BMP_temperature;BMP_pressure;BME280_temperature;BME280_humidity;BME280_pressure;Samples;Min_cycle;Max_cycle;Signal;HPM_P1;HPM_P2
2021/05/23 00:02:24;;;;;;;499.40;329.25;;;;;;;;;;4981497;28;20547;-77
2021/05/23 00:04:50;;;;;;;494.90;322.88;;;;;;;;;;4976236;28;20022;-77
2021/05/23 00:07:16;;;;;;;499.65;333.00;;;;;;;;;;4980710;28;20045;-78
2021/05/23 00:09:42;;;;;;;493.10;320.83;;;;;;;;;;4981395;28;20067;-77
2021/05/23 00:12:12;;;;;;;497.08;323.02;;;;;;;;;;4980807;28;20018;-78
2021/05/23 00:14:38;;;;;;;495.77;328.52;;;;;;;;;;4996076;28;20026;-77
2021/05/23 00:17:04;;;;;;;499.73;326.90;;;;;;;;;;4977626;28;20030;-78
2021/05/23 00:19:30;;;;;;;499.00;316.67;;;;;;;;;;4984581;28;20397;-78
2021/05/23 00:21:56;;;;;;;506.13;321.02;;;;;;;;;;4981658;28;20058;-78
2021/05/23 00:24:24;;;;;;;496.80;327.30;;;;;;;;;;4981856;28;20071;-78
2021/05/23 00:26:50;;;;;;;491.10;319.95;;;;;;;;;;4981393;28;20351;-77
2021/05/23 00:29:16;;;;;;;494.42;317.38;;;;;;;;;;4980606;28;20038;-77
2021/05/23 00:31:42;;;;;;;496.38;322.45;;;;;;;;;;4978238;28;20155;-79
2021/05/23 00:34:08;;;;;;;500.35;325.17;;;;;;;;;;4980423;28;20113;-78
2021/05/23 00:36:34;;;;;;;502.60;321.02;;;;;;;;;;4993726;28;20061;-77
2021/05/23 00:39:00;;;;;;;504.27;318.70;;;;;;;;;;4981939;28;20037;-78
2021/05/23 00:41:26;;;;;;;510.80;324.42;;;;;;;;;;4982791;28;20030;-77
2021/05/23 00:43:52;;;;;;;532.50;321.17;;;;;;;;;;4988746;28;20425;-77
2021/05/23 00:46:18;;;;;;;521.95;324.73;;;;;;;;;;4982474;28;20030;-77
2021/05/23 00:48:44;;;;;;;516.85;325.20;;;;;;;;;;4980590;28;20026;-77
2021/05/23 00:51:10;;;;;;;508.13;330.15;;;;;;;;;;4980920;28;20083;-77
2021/05/23 00:53:36;;;;;;;496.25;319.17;;;;;;;;;;4979275;28;20022;-77
2021/05/23 00:56:02;;;;;;;508.05;326.50;;;;;;;;;;4978616;28;20041;-78
2021/05/23 00:58:28;;;;;;;513.67;325.27;;;;;;;;;;4978157;28;20027;-78
2021/05/23 01:00:54;;;;;;;507.95;318.83;;;;;;;;;;4979307;28;20077;-78
2021/05/23 01:03:29;;;;;;;521.10;319.73;;;;;;;;;;4979114;28;20432;-77
2021/05/23 01:05:59;;;;;;;541.60;342.55;;;;;;;;;;4979997;28;20058;-78
2021/05/23 01:08:26;;;;;;;532.97;326.40;;;;;;;;;;4974975;28;21010;-78
2021/05/23 01:10:53;;;;;;;529.53;326.98;;;;;;;;;;4991727;28;20035;-77
2021/05/23 01:13:35;;;;;;;539.33;332.42;;;;;;;;;;4977492;28;20102;-78
2021/05/23 01:16:07;;;;;;;572.60;354.58;;;;;;;;;;4977596;28;20316;-78
2021/05/23 01:18:41;;;;;;;532.28;322.13;;;;;;;;;;4978633;28;20440;-77
2021/05/23 01:21:08;;;;;;;561.10;342.17;;;;;;;;;;4979197;28;20027;-77
2021/05/23 01:23:44;;;;;;;575.78;348.17;;;;;;;;;;4973399;28;20041;-78
2021/05/23 01:26:13;;;;;;;560.67;340.70;;;;;;;;;;4976456;28;20456;-76
2021/05/23 01:28:45;;;;;;;586.47;359.33;;;;;;;;;;4977007;28;20097;-77
2021/05/23 01:31:13;;;;;;;536.42;314.05;;;;;;;;;;4981146;28;20110;-77
2021/05/23 01:33:40;;;;;;;525.35;314.15;;;;;;;;;;4978778;28;20425;-77
2021/05/23 01:36:06;;;;;;;524.60;316.90;;;;;;;;;;4975098;28;20026;-77
2021/05/23 01:38:32;;;;;;;528.00;313.55;;;;;;;;;;4978312;28;20080;-77
2021/05/23 01:41:05;;;;;;;530.17;316.77;;;;;;;;;;4974021;28;20035;-76
2021/05/23 01:43:31;;;;;;;523.75;313.02;;;;;;;;;;4996860;28;20026;-78
2021/05/23 01:45:57;;;;;;;527.78;313.50;;;;;;;;;;4975405;28;20030;-78
2021/05/23 01:48:24;;;;;;;526.60;319.73;;;;;;;;;;4977561;28;20105;-75
2021/05/23 01:50:50;;;;;;;531.40;326.67;;;;;;;;;;4979855;28;20060;-76
2021/05/23 01:53:16;;;;;;;525.65;315.77;;;;;;;;;;4980102;28;20054;-77
2021/05/23 01:55:42;;;;;;;527.22;313.42;;;;;;;;;;4980842;28;20074;-77
2021/05/23 01:58:08;;;;;;;554.75;334.58;;;;;;;;;;4974471;28;20053;-79
2021/05/23 02:00:42;;;;;;;531.03;319.60;;;;;;;;;;4976410;28;20333;-78
2021/05/23 02:03:09;;;;;;;521.47;316.35;;;;;;;;;;4975145;28;20026;-77
2021/05/23 02:05:36;;;;;;;516.67;309.50;;;;;;;;;;4971968;28;20104;-78
2021/05/23 02:08:03;;;;;;;526.88;317.02;;;;;;;;;;4953836;28;20046;-76
2021/05/23 02:10:29;;;;;;;565.95;346.13;;;;;;;;;;4950008;28;20016;-77
2021/05/23 02:12:57;;;;;;;530.78;323.88;;;;;;;;;;4956237;28;20053;-77
2021/05/23 02:15:23;;;;;;;536.28;317.65;;;;;;;;;;4964312;28;20160;-78
2021/05/23 02:17:49;;;;;;;533.63;319.10;;;;;;;;;;4956940;28;20103;-78
2021/05/23 02:20:20;;;;;;;538.40;323.85;;;;;;;;;;4973613;28;20695;-77
2021/05/23 02:22:46;;;;;;;;;;;;;;;;;;4971775;28;20035;-79
2021/05/23 02:25:14;;;;;;;538.75;308.25;;;;;;;;;;4969910;28;19914;-76
2021/05/23 02:27:41;;;;;;;541.65;322.02;;;;;;;;;;4959625;28;20121;-79
2021/05/23 02:30:11;;;;;;;551.40;321.25;;;;;;;;;;4955660;28;20095;-77
2021/05/23 02:32:38;;;;;;;528.15;303.73;;;;;;;;;;4962449;28;20392;-78
2021/05/23 02:35:05;;;;;;;585.40;336.23;;;;;;;;;;4969726;28;20063;-77
2021/05/23 02:37:30;;;;;;;537.42;306.92;;;;;;;;;;4955450;28;20026;-77
2021/05/23 02:39:56;;;;;;;526.75;312.70;;;;;;;;;;4955819;28;20077;-79
2021/05/23 02:42:23;;;;;;;525.72;313.70;;;;;;;;;;4953580;28;20492;-80
2021/05/23 02:44:49;;;;;;;527.08;316.27;;;;;;;;;;4961280;28;20031;-77
2021/05/23 02:47:15;;;;;;;520.92;296.30;;;;;;;;;;4954726;28;20035;-79
2021/05/23 02:49:42;;;;;;;526.28;309.35;;;;;;;;;;4973849;28;20047;-75
2021/05/23 02:52:08;;;;;;;531.60;313.67;;;;;;;;;;4955483;28;20027;-76
2021/05/23 02:54:34;;;;;;;529.97;300.17;;;;;;;;;;4963219;28;20039;-77
2021/05/23 02:57:00;;;;;;;547.05;315.67;;;;;;;;;;4960214;28;20543;-75
2021/05/23 02:59:26;;;;;;;549.88;324.20;;;;;;;;;;4959976;28;20353;-77
2021/05/23 03:01:52;;;;;;;561.20;335.77;;;;;;;;;;4962250;28;20087;-77
2021/05/23 03:04:18;;;;;;;559.13;331.67;;;;;;;;;;4961733;28;20105;-77
2021/05/23 03:06:44;;;;;;;552.20;326.02;;;;;;;;;;4969113;28;20054;-78
2021/05/23 03:09:10;;;;;;;543.72;319.75;;;;;;;;;;4973441;28;20055;-77
2021/05/23 03:11:36;;;;;;;548.88;320.50;;;;;;;;;;4976626;28;20027;-76
2021/05/23 03:14:02;;;;;;;558.70;332.50;;;;;;;;;;4976224;28;20025;-76
2021/05/23 03:16:28;;;;;;;542.03;312.38;;;;;;;;;;4972153;28;20041;-77
2021/05/23 03:18:54;;;;;;;535.20;319.45;;;;;;;;;;4972120;28;20022;-77
2021/05/23 03:21:20;;;;;;;541.22;318.35;;;;;;;;;;4975874;28;20033;-78
2021/05/23 03:23:46;;;;;;;535.00;314.48;;;;;;;;;;4990180;28;20062;-77
2021/05/23 03:26:12;;;;;;;541.85;316.83;;;;;;;;;;4973814;28;20030;-76
2021/05/23 03:28:38;;;;;;;530.65;312.20;;;;;;;;;;4977977;28;20056;-77
2021/05/23 03:31:04;;;;;;;538.03;313.30;;;;;;;;;;4975439;28;20045;-76
2021/05/23 03:33:30;;;;;;;546.72;331.35;;;;;;;;;;4975902;28;20015;-76
2021/05/23 03:35:57;;;;;;;540.17;325.67;;;;;;;;;;4974653;28;20399;-79
2021/05/23 03:38:24;;;;;;;514.63;312.88;;;;;;;;;;4972165;28;20159;-77
2021/05/23 03:40:50;;;;;;;509.58;314.13;;;;;;;;;;4970756;28;20029;-77
2021/05/23 03:43:16;;;;;;;510.50;308.25;;;;;;;;;;4976296;28;20035;-77
2021/05/23 03:45:42;;;;;;;509.65;319.00;;;;;;;;;;4974725;28;20163;-78
2021/05/23 03:48:08;;;;;;;505.20;310.63;;;;;;;;;;4978295;28;20065;-76
2021/05/23 03:50:34;;;;;;;513.88;317.25;;;;;;;;;;4976513;28;20039;-77
2021/05/23 03:53:00;;;;;;;513.38;314.27;;;;;;;;;;4979956;28;20102;-77
2021/05/23 03:55:27;;;;;;;510.40;311.08;;;;;;;;;;4975168;28;20034;-78
2021/05/23 03:57:54;;;;;;;515.53;315.48;;;;;;;;;;4977465;28;20034;-78
2021/05/23 04:00:20;;;;;;;517.97;326.42;;;;;;;;;;4978092;28;20027;-77
2021/05/23 04:02:54;;;;;;;523.03;323.75;;;;;;;;;;4975399;28;20014;-78
2021/05/23 04:05:20;;;;;;;530.90;329.00;;;;;;;;;;4979719;28;20109;-77
2021/05/23 04:07:46;;;;;;;537.17;331.27;;;;;;;;;;4981567;28;20445;-77
2021/05/23 04:10:14;;;;;;;522.38;325.77;;;;;;;;;;4981484;28;20038;-77
2021/05/23 04:12:43;;;;;;;507.65;313.75;;;;;;;;;;4976233;28;20067;-77
2021/05/23 04:15:09;;;;;;;503.33;308.65;;;;;;;;;;4979746;28;20022;-79
2021/05/23 04:17:36;;;;;;;505.42;319.23;;;;;;;;;;4985050;28;20030;-78
2021/05/23 04:20:03;;;;;;;512.60;324.08;;;;;;;;;;4995068;28;20113;-78
2021/05/23 04:22:29;;;;;;;512.17;321.40;;;;;;;;;;4983944;28;20034;-77
2021/05/23 04:24:55;;;;;;;508.73;316.70;;;;;;;;;;4980457;28;20030;-76
2021/05/23 04:27:21;;;;;;;512.28;322.88;;;;;;;;;;4986484;28;20400;-78
2021/05/23 04:29:47;;;;;;;522.78;326.23;;;;;;;;;;5000645;28;20022;-77
2021/05/23 04:32:13;;;;;;;532.67;332.67;;;;;;;;;;4975397;28;20473;-77
2021/05/23 04:34:39;;;;;;;538.42;344.20;;;;;;;;;;4982868;28;20341;-76
2021/05/23 04:37:05;;;;;;;543.60;351.60;;;;;;;;;;4981318;28;20054;-78
2021/05/23 04:39:32;;;;;;;542.30;350.75;;;;;;;;;;4996048;28;20098;-76
2021/05/23 04:41:58;;;;;;;525.55;333.48;;;;;;;;;;4983048;28;20022;-78
2021/05/23 04:44:24;;;;;;;534.65;344.48;;;;;;;;;;4981344;28;20373;-75
2021/05/23 04:46:50;;;;;;;526.72;332.88;;;;;;;;;;4993629;28;20087;-77
2021/05/23 04:49:16;;;;;;;523.15;326.75;;;;;;;;;;4980335;28;20073;-76
2021/05/23 04:51:43;;;;;;;512.97;326.45;;;;;;;;;;4979509;28;20103;-75
2021/05/23 04:54:09;;;;;;;519.83;334.00;;;;;;;;;;4998412;28;20374;-76
2021/05/23 04:56:35;;;;;;;515.92;329.13;;;;;;;;;;4979149;28;20024;-76
2021/05/23 04:59:01;;;;;;;523.85;327.55;;;;;;;;;;4978331;28;20021;-75
2021/05/23 05:01:27;;;;;;;532.33;340.88;;;;;;;;;;4979320;28;20097;-77
2021/05/23 05:03:53;;;;;;;526.28;337.95;;;;;;;;;;4999413;28;20436;-77
2021/05/23 05:06:19;;;;;;;517.47;319.42;;;;;;;;;;4977712;28;20068;-77
2021/05/23 05:08:46;;;;;;;527.58;334.73;;;;;;;;;;4980466;28;20011;-76
2021/05/23 05:11:12;;;;;;;528.95;324.90;;;;;;;;;;4990933;28;20015;-75
2021/05/23 05:13:38;;;;;;;544.53;342.58;;;;;;;;;;4973627;28;20155;-78
2021/05/23 05:16:04;;;;;;;532.47;333.23;;;;;;;;;;4994901;28;20030;-78
2021/05/23 05:18:30;;;;;;;539.63;342.75;;;;;;;;;;4983595;28;20022;-77
2021/05/23 05:20:56;;;;;;;538.92;341.77;;;;;;;;;;4979827;28;20018;-77
2021/05/23 05:23:22;;;;;;;529.35;334.38;;;;;;;;;;4976122;28;20073;-76
2021/05/23 05:25:48;;;;;;;532.35;330.55;;;;;;;;;;4977244;28;20030;-78
2021/05/23 05:28:14;;;;;;;525.20;328.00;;;;;;;;;;4979538;28;20036;-76
2021/05/23 05:30:40;;;;;;;525.97;327.48;;;;;;;;;;4978817;28;20454;-77
2021/05/23 05:33:06;;;;;;;539.83;338.80;;;;;;;;;;4996093;28;20049;-78
2021/05/23 05:35:32;;;;;;;524.58;336.42;;;;;;;;;;4994975;28;20050;-76
2021/05/23 05:37:58;;;;;;;520.50;332.80;;;;;;;;;;4980040;28;20064;-78
2021/05/23 05:40:24;;;;;;;539.08;336.60;;;;;;;;;;4973825;28;20045;-75
2021/05/23 05:42:50;;;;;;;518.38;329.70;;;;;;;;;;4975292;28;20033;-78
2021/05/23 05:45:16;;;;;;;515.65;332.92;;;;;;;;;;4980823;28;20074;-78
2021/05/23 05:47:42;;;;;;;521.90;341.52;;;;;;;;;;4981063;28;20030;-76
2021/05/23 05:50:09;;;;;;;514.08;332.55;;;;;;;;;;4976352;28;20029;-77
2021/05/23 05:52:35;;;;;;;539.80;349.17;;;;;;;;;;4996780;28;20079;-77
2021/05/23 05:55:01;;;;;;;534.33;339.88;;;;;;;;;;4980799;28;20023;-76
2021/05/23 05:57:27;;;;;;;522.55;336.52;;;;;;;;;;4981525;28;20113;-77
2021/05/23 05:59:53;;;;;;;526.25;345.90;;;;;;;;;;4974376;28;20037;-78
2021/05/23 06:02:19;;;;;;;559.90;358.20;;;;;;;;;;4988771;28;20027;-76
2021/05/23 06:04:45;;;;;;;538.95;343.45;;;;;;;;;;4974770;28;20340;-76
2021/05/23 06:07:11;;;;;;;535.35;339.77;;;;;;;;;;4982620;28;20046;-77
2021/05/23 06:09:37;;;;;;;535.67;343.77;;;;;;;;;;4980941;28;20108;-76
2021/05/23 06:12:03;;;;;;;526.80;344.88;;;;;;;;;;4977475;28;20069;-76
2021/05/23 06:14:29;;;;;;;537.78;350.05;;;;;;;;;;4978309;28;20030;-76
2021/05/23 06:16:55;;;;;;;538.03;344.02;;;;;;;;;;4976881;28;20520;-79
2021/05/23 06:19:21;;;;;;;515.95;337.48;;;;;;;;;;4978257;28;20063;-78
2021/05/23 06:21:47;;;;;;;523.15;341.23;;;;;;;;;;4991533;28;20062;-77
2021/05/23 06:24:13;;;;;;;516.70;331.73;;;;;;;;;;4979780;28;20038;-78
2021/05/23 06:26:39;;;;;;;528.53;337.38;;;;;;;;;;4992297;28;20475;-77
2021/05/23 06:29:05;;;;;;;527.08;336.33;;;;;;;;;;4977954;28;20034;-78
2021/05/23 06:31:32;;;;;;;528.33;335.63;;;;;;;;;;4979584;28;20803;-77
2021/05/23 06:33:58;;;;;;;519.88;342.88;;;;;;;;;;4998516;28;20022;-77
2021/05/23 06:36:24;;;;;;;521.13;348.42;;;;;;;;;;4981331;28;20018;-75
2021/05/23 06:38:50;;;;;;;507.35;328.58;;;;;;;;;;4977078;28;20079;-78
2021/05/23 06:41:16;;;;;;;505.45;335.80;;;;;;;;;;4981280;28;20062;-76
2021/05/23 06:43:42;;;;;;;506.73;333.60;;;;;;;;;;4978094;28;20026;-78
2021/05/23 06:46:08;;;;;;;511.75;331.42;;;;;;;;;;4992012;28;20486;-76
2021/05/23 06:48:34;;;;;;;512.83;339.65;;;;;;;;;;4992987;28;20067;-77
2021/05/23 06:51:00;;;;;;;507.85;331.25;;;;;;;;;;4994067;28;20048;-78
2021/05/23 06:53:26;;;;;;;506.30;333.92;;;;;;;;;;4989961;28;20086;-77
2021/05/23 06:55:52;;;;;;;502.90;328.98;;;;;;;;;;4980184;28;20115;-78
2021/05/23 06:58:18;;;;;;;500.85;327.73;;;;;;;;;;4986552;28;20109;-78
2021/05/23 07:00:45;;;;;;;506.23;336.40;;;;;;;;;;4985318;28;20029;-78
2021/05/23 07:03:11;;;;;;;506.20;339.00;;;;;;;;;;4978961;28;20076;-77
2021/05/23 07:05:37;;;;;;;506.73;334.30;;;;;;;;;;4981016;28;20144;-76
2021/05/23 07:08:04;;;;;;;501.95;332.08;;;;;;;;;;4993583;28;20030;-76
2021/05/23 07:10:31;;;;;;;501.38;329.65;;;;;;;;;;4981421;28;20428;-76
2021/05/23 07:12:56;;;;;;;503.38;331.45;;;;;;;;;;4986097;28;20167;-78
2021/05/23 07:15:22;;;;;;;500.88;326.55;;;;;;;;;;4987133;28;20448;-78
2021/05/23 07:17:52;;;;;;;502.55;332.35;;;;;;;;;;4988796;28;20011;-76
2021/05/23 07:20:18;;;;;;;500.38;318.38;;;;;;;;;;4985981;28;20026;-77
2021/05/23 07:22:44;;;;;;;501.83;317.17;;;;;;;;;;4986696;28;20017;-76
2021/05/23 07:25:10;;;;;;;500.88;319.70;;;;;;;;;;4989112;28;20031;-76
2021/05/23 07:27:36;;;;;;;500.42;317.23;;;;;;;;;;4988205;28;20070;-76
2021/05/23 07:30:02;;;;;;;502.13;323.05;;;;;;;;;;4982166;28;20360;-75
2021/05/23 07:32:28;;;;;;;505.17;323.17;;;;;;;;;;4988883;28;20121;-77
2021/05/23 07:34:54;;;;;;;517.28;333.50;;;;;;;;;;4986751;28;20717;-77
2021/05/23 07:37:20;;;;;;;515.70;328.40;;;;;;;;;;4989981;28;20512;-78
2021/05/23 07:39:46;;;;;;;510.58;322.55;;;;;;;;;;5001582;28;20030;-77
2021/05/23 07:42:12;;;;;;;525.03;335.90;;;;;;;;;;4986099;28;20021;-76
2021/05/23 07:44:38;;;;;;;521.28;328.85;;;;;;;;;;4987034;28;20025;-76
2021/05/23 07:47:04;;;;;;;515.05;331.52;;;;;;;;;;4984532;28;20040;-77
2021/05/23 07:49:30;;;;;;;526.72;328.98;;;;;;;;;;4987749;28;20059;-77
2021/05/23 07:51:57;;;;;;;520.72;330.83;;;;;;;;;;4991456;28;20021;-79
2021/05/23 07:54:23;;;;;;;513.20;317.73;;;;;;;;;;5001102;28;20026;-77
2021/05/23 07:56:49;;;;;;;509.52;321.23;;;;;;;;;;4984605;28;20121;-78
2021/05/23 07:59:15;;;;;;;510.00;317.05;;;;;;;;;;4986543;28;20018;-80
2021/05/23 08:01:41;;;;;;;518.70;331.95;;;;;;;;;;4986149;28;20403;-78
2021/05/23 08:04:07;;;;;;;517.92;328.30;;;;;;;;;;4984853;28;20032;-78
2021/05/23 08:06:33;;;;;;;508.75;323.98;;;;;;;;;;4981536;28;20046;-78
2021/05/23 08:08:59;;;;;;;505.85;321.17;;;;;;;;;;4992793;28;20444;-78
2021/05/23 08:11:25;;;;;;;513.03;331.83;;;;;;;;;;4990125;28;20017;-77
2021/05/23 08:13:51;;;;;;;506.17;322.50;;;;;;;;;;4987698;28;20550;-76
2021/05/23 08:16:17;;;;;;;513.67;333.73;;;;;;;;;;4988479;28;20022;-77
2021/05/23 08:18:43;;;;;;;508.33;319.55;;;;;;;;;;4991059;28;20025;-75
2021/05/23 08:21:09;;;;;;;515.28;331.45;;;;;;;;;;4980291;28;20091;-76
2021/05/23 08:23:36;;;;;;;514.67;327.15;;;;;;;;;;4988389;28;20026;-78
2021/05/23 08:26:02;;;;;;;516.15;335.20;;;;;;;;;;5008707;28;20026;-77
2021/05/23 08:28:32;;;;;;;515.03;328.48;;;;;;;;;;4979313;28;20321;-80
2021/05/23 08:30:59;;;;;;;512.08;327.10;;;;;;;;;;4984673;28;20166;-78
2021/05/23 08:33:25;;;;;;;517.53;330.70;;;;;;;;;;5002976;28;20022;-78
2021/05/23 08:35:51;;;;;;;517.30;330.65;;;;;;;;;;4986807;28;20037;-77
2021/05/23 08:38:17;;;;;;;521.20;339.08;;;;;;;;;;4999329;28;20030;-77
2021/05/23 08:40:43;;;;;;;525.17;355.17;;;;;;;;;;5002710;28;20079;-77
2021/05/23 08:43:10;;;;;;;520.60;341.33;;;;;;;;;;4987555;28;20018;-78
2021/05/23 08:45:37;;;;;;;503.30;324.92;;;;;;;;;;4997465;28;20033;-77
2021/05/23 08:48:03;;;;;;;510.35;333.58;;;;;;;;;;4981512;28;20462;-79
2021/05/23 08:50:29;;;;;;;510.08;342.35;;;;;;;;;;4985797;28;20107;-77
2021/05/23 08:52:56;;;;;;;515.72;348.63;;;;;;;;;;4992293;28;20037;-79
2021/05/23 08:55:22;;;;;;;509.83;340.27;;;;;;;;;;4976362;28;20028;-77
2021/05/23 08:57:49;;;;;;;514.47;346.55;;;;;;;;;;4983982;28;20038;-76
2021/05/23 09:00:15;;;;;;;518.50;351.75;;;;;;;;;;4984959;28;20083;-78
2021/05/23 09:03:01;;;;;;;518.35;353.45;;;;;;;;;;4990331;28;20017;-78
2021/05/23 09:05:30;;;;;;;500.65;335.15;;;;;;;;;;4985294;28;20050;-78
2021/05/23 09:07:56;;;;;;;503.95;342.08;;;;;;;;;;4989733;28;20151;-78
2021/05/23 09:10:23;;;;;;;506.25;349.42;;;;;;;;;;5008356;28;20033;-77
2021/05/23 09:12:49;;;;;;;508.17;346.38;;;;;;;;;;4988587;28;20109;-77
2021/05/23 09:15:15;;;;;;;503.45;354.63;;;;;;;;;;4991801;28;20137;-76
2021/05/23 09:17:41;;;;;;;512.80;363.90;;;;;;;;;;4996541;28;20752;-79
2021/05/23 09:20:07;;;;;;;511.88;357.23;;;;;;;;;;5000791;28;20094;-80
2021/05/23 09:22:33;;;;;;;517.65;359.52;;;;;;;;;;5004973;28;20555;-78
2021/05/23 09:25:04;;;;;;;512.88;355.45;;;;;;;;;;4982222;28;20041;-77
2021/05/23 09:27:32;;;;;;;519.53;356.55;;;;;;;;;;4996793;28;20402;-77
2021/05/23 09:30:20;;;;;;;522.60;369.35;;;;;;;;;;5000926;28;20420;-81
2021/05/23 09:32:49;;;;;;;521.83;356.42;;;;;;;;;;4977870;28;20079;-76
2021/05/23 09:35:16;;;;;;;553.88;391.67;;;;;;;;;;4992558;28;20025;-80
2021/05/23 09:37:42;;;;;;;571.83;416.88;;;;;;;;;;4995627;28;20359;-77
2021/05/23 09:40:20;;;;;;;562.83;406.73;;;;;;;;;;4997205;28;20026;-76
2021/05/23 09:42:50;;;;;;;530.80;374.73;;;;;;;;;;5000454;28;20038;-75
2021/05/23 09:45:16;;;;;;;548.25;380.20;;;;;;;;;;4989794;28;20030;-78
2021/05/23 09:47:50;;;;;;;517.75;357.95;;;;;;;;;;4986744;28;20060;-78
2021/05/23 09:50:16;;;;;;;538.40;370.83;;;;;;;;;;4988369;28;20018;-76
2021/05/23 09:52:43;;;;;;;538.45;366.67;;;;;;;;;;4990523;28;20025;-76
2021/05/23 09:55:10;;;;;;;531.67;366.38;;;;;;;;;;4991696;28;20022;-77
2021/05/23 09:57:36;;;;;;;517.33;348.55;;;;;;;;;;4981658;28;20238;-77
2021/05/23 10:00:07;;;;;;;509.42;340.25;;;;;;;;;;4995542;28;20045;-77
2021/05/23 10:02:33;;;;;;;506.45;339.52;;;;;;;;;;4989602;28;20019;-78
2021/05/23 10:05:04;;;;;;;508.00;335.08;;;;;;;;;;4979556;28;20040;-77
2021/05/23 10:07:34;;;;;;;514.75;345.65;;;;;;;;;;4983819;28;20510;-77
2021/05/23 10:10:02;;;;;;;518.63;345.02;;;;;;;;;;4989640;28;20046;-78
2021/05/23 10:12:28;;;;;;;532.20;356.92;;;;;;;;;;4991061;28;20034;-78
2021/05/23 10:14:54;;;;;;;548.78;367.45;;;;;;;;;;4988036;28;20018;-78
2021/05/23 10:17:22;;;;;;;557.75;381.13;;;;;;;;;;4980671;28;20343;-78
2021/05/23 10:19:49;;;;;;;561.83;387.50;;;;;;;;;;4988396;28;20037;-78
2021/05/23 10:22:15;;;;;;;539.97;375.38;;;;;;;;;;4983642;28;20160;-77
2021/05/23 10:24:49;;;;;;;527.63;361.00;;;;;;;;;;4979497;28;20014;-78
2021/05/23 10:27:19;;;;;;;528.05;353.00;;;;;;;;;;4994830;28;20335;-78
2021/05/23 10:29:46;;;;;;;524.13;354.98;;;;;;;;;;4979983;28;20034;-79
2021/05/23 10:32:17;;;;;;;519.47;346.00;;;;;;;;;;4983224;28;20135;-77
2021/05/23 10:34:46;;;;;;;521.63;349.85;;;;;;;;;;4995758;28;20022;-78
2021/05/23 10:37:12;;;;;;;523.60;354.38;;;;;;;;;;5005368;28;20014;-77
2021/05/23 10:39:39;;;;;;;529.45;363.33;;;;;;;;;;4986190;28;20034;-79
2021/05/23 10:42:06;;;;;;;529.10;360.40;;;;;;;;;;4980941;28;20683;-78
2021/05/23 10:44:39;;;;;;;526.00;364.27;;;;;;;;;;4976800;28;20105;-78
2021/05/23 10:47:09;;;;;;;540.08;367.95;;;;;;;;;;4980791;28;20040;-78
2021/05/23 10:49:35;;;;;;;;;;;;;;;;;;4983783;28;20322;-79
2021/05/23 10:52:02;;;;;;;531.83;351.65;;;;;;;;;;4984177;28;19913;-77
2021/05/23 10:54:29;;;;;;;542.75;363.98;;;;;;;;;;4984905;28;20022;-78
2021/05/23 10:56:59;;;;;;;530.60;362.20;;;;;;;;;;4987002;28;20018;-76
2021/05/23 10:59:30;;;;;;;537.20;360.08;;;;;;;;;;4982709;28;20109;-77
2021/05/23 11:01:56;;;;;;;524.50;349.85;;;;;;;;;;5000537;28;20013;-77
2021/05/23 11:04:34;;;;;;;535.97;370.48;;;;;;;;;;4979718;28;20463;-77
2021/05/23 11:07:07;;;;;;;531.75;360.17;;;;;;;;;;4991647;28;20046;-78
2021/05/23 11:09:35;;;;;;;523.22;355.75;;;;;;;;;;4993192;28;20018;-77
2021/05/23 11:12:09;;;;;;;523.30;350.17;;;;;;;;;;4988785;28;20033;-77
2021/05/23 11:14:35;;;;;;;529.13;362.77;;;;;;;;;;5002263;28;20093;-78
2021/05/23 11:17:01;;;;;;;533.63;356.95;;;;;;;;;;5003845;28;20167;-79
2021/05/23 11:19:30;;;;;;;520.80;347.45;;;;;;;;;;4990402;28;20055;-77
2021/05/23 11:21:58;;;;;;;535.25;359.98;;;;;;;;;;4985952;28;20023;-78
2021/05/23 11:24:28;;;;;;;523.20;353.60;;;;;;;;;;4987620;28;20060;-76
2021/05/23 11:26:54;;;;;;;523.72;350.35;;;;;;;;;;4995901;28;20033;-79
2021/05/23 11:29:20;;;;;;;530.70;361.58;;;;;;;;;;4991102;28;20034;-77
2021/05/23 11:31:49;;;;;;;538.10;366.55;;;;;;;;;;4997751;28;20014;-77
2021/05/23 11:34:18;;;;;;;574.63;390.00;;;;;;;;;;5000386;28;20479;-77
2021/05/23 11:36:44;;;;;;;532.88;357.83;;;;;;;;;;4981321;28;20029;-78
2021/05/23 11:39:12;;;;;;;550.60;377.83;;;;;;;;;;4982711;28;20022;-78
2021/05/23 11:41:42;;;;;;;550.45;371.08;;;;;;;;;;5005798;28;20659;-76
2021/05/23 11:44:10;;;;;;;574.40;397.50;;;;;;;;;;4981114;28;20034;-77
2021/05/23 11:46:38;;;;;;;565.95;389.85;;;;;;;;;;5006034;28;20033;-76
2021/05/23 11:49:04;;;;;;;565.55;396.23;;;;;;;;;;4996341;28;20819;-75
2021/05/23 11:51:31;;;;;;;557.33;375.95;;;;;;;;;;4999897;28;20143;-77
2021/05/23 11:53:58;;;;;;;568.20;395.38;;;;;;;;;;4985539;28;20014;-78
2021/05/23 11:56:28;;;;;;;554.30;379.63;;;;;;;;;;4982321;28;20054;-79
2021/05/23 11:58:55;;;;;;;569.92;395.00;;;;;;;;;;4987171;28;20045;-77
2021/05/23 12:01:21;;;;;;;535.13;370.95;;;;;;;;;;4977199;28;20022;-76
2021/05/23 12:03:55;;;;;;;544.33;377.98;;;;;;;;;;4988379;28;20029;-77
2021/05/23 12:06:21;;;;;;;531.30;362.05;;;;;;;;;;4988387;28;20053;-76
2021/05/23 12:08:47;;;;;;;526.05;361.40;;;;;;;;;;5014376;28;20025;-77
2021/05/23 12:11:13;;;;;;;535.40;374.77;;;;;;;;;;4981555;28;20061;-77
2021/05/23 12:13:42;;;;;;;529.17;373.02;;;;;;;;;;4981267;28;20054;-76
2021/05/23 12:16:09;;;;;;;530.60;372.83;;;;;;;;;;4977323;28;20026;-79
2021/05/23 12:18:41;;;;;;;539.35;389.80;;;;;;;;;;4996222;28;20034;-77
2021/05/23 12:21:09;;;;;;;526.67;374.10;;;;;;;;;;4994227;28;20122;-79
2021/05/23 12:23:36;;;;;;;526.35;375.98;;;;;;;;;;4997057;28;20040;-79
2021/05/23 12:26:08;;;;;;;536.08;392.30;;;;;;;;;;4976492;28;20018;-79
2021/05/23 12:28:44;;;;;;;533.08;400.52;;;;;;;;;;4982980;28;20030;-78
2021/05/23 12:31:13;;;;;;;534.30;408.40;;;;;;;;;;4980824;28;20034;-78
2021/05/23 12:33:39;;;;;;;535.13;420.17;;;;;;;;;;4980059;28;20077;-78
2021/05/23 12:36:13;;;;;;;537.40;421.55;;;;;;;;;;5001734;28;20055;-78
2021/05/23 12:38:53;;;;;;;540.60;414.38;;;;;;;;;;4992353;28;20368;-78
2021/05/23 12:41:20;;;;;;;548.90;410.50;;;;;;;;;;4994386;28;20102;-78
2021/05/23 12:43:46;;;;;;;541.75;413.40;;;;;;;;;;4979002;28;20348;-78
2021/05/23 12:46:15;;;;;;;545.70;413.15;;;;;;;;;;4982239;28;20325;-78
2021/05/23 12:48:42;;;;;;;568.45;404.27;;;;;;;;;;4982735;28;20121;-78
2021/05/23 12:51:21;;;;;;;536.40;395.83;;;;;;;;;;4995966;28;20555;-76
2021/05/23 12:53:48;;;;;;;531.28;393.35;;;;;;;;;;4979524;28;20022;-76
2021/05/23 12:56:15;;;;;;;537.78;412.05;;;;;;;;;;4992849;28;20018;-79
2021/05/23 12:59:01;;;;;;;538.85;415.80;;;;;;;;;;4989138;28;20017;-79
2021/05/23 13:01:29;;;;;;;542.72;422.52;;;;;;;;;;4976085;28;20055;-79
2021/05/23 13:03:59;;;;;;;538.75;419.42;;;;;;;;;;4985985;28;20336;-79
2021/05/23 13:06:52;;;;;;;545.65;422.38;;;;;;;;;;4983484;28;20103;-79
2021/05/23 13:09:19;;;;;;;538.22;408.25;;;;;;;;;;4990873;28;20022;-78
2021/05/23 13:11:55;;;;;;;533.58;402.33;;;;;;;;;;4979567;28;20022;-78
2021/05/23 13:14:21;;;;;;;542.40;416.75;;;;;;;;;;4979128;28;20073;-78
2021/05/23 13:16:51;;;;;;;542.90;416.02;;;;;;;;;;4977200;28;20105;-79
2021/05/23 13:19:18;;;;;;;559.65;442.88;;;;;;;;;;4982048;28;20079;-77
2021/05/23 13:21:44;;;;;;;527.55;421.98;;;;;;;;;;4984351;28;20030;-78
2021/05/23 13:24:10;;;;;;;549.40;435.83;;;;;;;;;;4977335;28;20470;-76
2021/05/23 13:26:45;;;;;;;546.13;425.25;;;;;;;;;;4982533;28;20034;-80
2021/05/23 13:29:11;;;;;;;545.35;424.23;;;;;;;;;;4981386;28;20026;-77
2021/05/23 13:31:37;;;;;;;542.38;411.70;;;;;;;;;;4993840;28;20037;-76
2021/05/23 13:34:03;;;;;;;541.67;418.67;;;;;;;;;;4984312;28;20018;-77
2021/05/23 13:36:29;;;;;;;539.20;414.58;;;;;;;;;;4997891;28;20023;-78
2021/05/23 13:38:55;;;;;;;545.70;429.05;;;;;;;;;;4982003;28;20033;-79
2021/05/23 13:41:21;;;;;;;547.20;439.40;;;;;;;;;;4986574;28;20061;-78
2021/05/23 13:43:47;;;;;;;555.63;445.17;;;;;;;;;;4979932;28;20436;-78
2021/05/23 13:46:13;;;;;;;541.85;417.10;;;;;;;;;;4978367;28;20105;-77
2021/05/23 13:48:39;;;;;;;537.40;409.85;;;;;;;;;;4980454;28;20022;-77
2021/05/23 13:51:06;;;;;;;547.42;415.42;;;;;;;;;;4980082;28;20441;-76
2021/05/23 13:53:32;;;;;;;546.90;420.98;;;;;;;;;;4973367;28;20036;-77
2021/05/23 13:55:58;;;;;;;546.35;430.58;;;;;;;;;;4981486;28;20315;-80